Time;durP1;ratioP1;P1;durP2;ratioP2;P2;SDS_P1;SDS_P2;PMS_P1;PMS_P2;Temp;Humidity;BMP_temperature;BMP_pressure;BME280_temperature;BME280_humidity;BME280_pressure;Samples;Min_cycle;Max_cycle;Signal;HPM_P1;HPM_P2
2022/09/15 00:01:35;;;;;;;15.57;9.40;;;14.70;99.90;;;;;;5029102;28;20627;-52
2022/09/15 00:04:02;;;;;;;13.50;9.20;;;14.60;99.90;;;;;;5032023;28;20236;-53
2022/09/15 00:06:29;;;;;;;13.47;8.40;;;14.60;99.90;;;;;;5030133;28;20301;-53
2022/09/15 00:08:58;;;;;;;10.07;8.43;;;14.70;99.90;;;;;;5027288;28;20209;-52
2022/09/15 00:11:30;;;;;;;13.23;8.53;;;14.70;99.90;;;;;;5031050;28;20298;-52
2022/09/15 00:14:00;;;;;;;13.20;9.30;;;14.70;99.90;;;;;;5029497;28;20500;-51
2022/09/15 00:16:29;;;;;;;14.63;8.97;;;14.60;99.90;;;;;;5031517;28;20313;-51
2022/09/15 00:18:58;;;;;;;13.77;9.17;;;14.70;99.90;;;;;;5030992;28;20290;-52
2022/09/15 00:21:27;;;;;;;12.17;8.63;;;14.70;99.90;;;;;;5029051;28;20208;-52
2022/09/15 00:23:54;;;;;;;12.30;9.37;;;14.70;99.90;;;;;;5032397;28;20254;-51
2022/09/15 00:26:25;;;;;;;14.47;8.10;;;14.70;99.90;;;;;;5033423;28;20543;-52
2022/09/15 00:28:52;;;;;;;15.30;8.87;;;14.80;99.90;;;;;;5033836;28;20336;-52
2022/09/15 00:31:21;;;;;;;12.37;8.13;;;14.80;99.90;;;;;;5031741;28;20676;-52
2022/09/15 00:33:51;;;;;;;12.80;8.70;;;14.80;99.90;;;;;;5029802;28;20251;-52
2022/09/15 00:36:20;;;;;;;13.73;8.53;;;14.80;99.90;;;;;;5032144;28;20230;-53
2022/09/15 00:38:47;;;;;;;12.90;8.50;;;14.70;99.90;;;;;;5032752;28;20206;-53
2022/09/15 00:41:16;;;;;;;14.93;8.47;;;14.90;99.90;;;;;;5031005;28;20234;-52
2022/09/15 00:43:48;;;;;;;11.40;7.67;;;14.90;99.90;;;;;;5028805;28;20195;-52
2022/09/15 00:46:17;;;;;;;11.97;7.67;;;15.00;99.90;;;;;;5030353;28;20212;-52
2022/09/15 00:48:53;;;;;;;12.70;8.57;;;15.10;99.90;;;;;;5022222;28;20582;-52
2022/09/15 00:51:25;;;;;;;12.10;7.67;;;15.20;99.90;;;;;;5024933;28;20613;-52
2022/09/15 00:53:53;;;;;;;11.63;7.90;;;15.20;99.90;;;;;;5028119;28;20218;-52
2022/09/15 00:56:21;;;;;;;12.03;7.90;;;15.20;99.90;;;;;;5030987;28;20200;-52
2022/09/15 00:59:00;;;;;;;13.90;7.83;;;15.20;99.90;;;;;;5029568;28;20208;-53
2022/09/15 01:01:29;;;;;;;10.57;7.53;;;15.10;99.90;;;;;;5028543;28;20229;-52
2022/09/15 01:03:57;;;;;;;10.87;7.67;;;15.20;99.90;;;;;;5027427;28;20231;-52
2022/09/15 01:06:35;;;;;;;12.93;8.20;;;15.10;99.90;;;;;;5023284;28;20595;-52
2022/09/15 01:09:19;;;;;;;10.87;8.17;;;15.10;99.90;;;;;;5027417;28;20736;-53
2022/09/15 01:11:46;;;;;;;16.87;8.27;;;15.00;99.90;;;;;;5024624;28;20204;-51
2022/09/15 01:14:14;;;;;;;15.73;8.57;;;15.00;99.90;;;;;;5029663;28;20218;-53
2022/09/15 01:16:49;;;;;;;12.50;7.73;;;14.80;99.90;;;;;;5027180;28;20206;-53
2022/09/15 01:19:51;;;;;;;10.40;7.93;;;15.00;99.90;;;;;;5020157;28;20218;-53
2022/09/15 01:22:57;;;;;;;9.83;8.00;;;15.00;99.90;;;;;;5026150;28;20198;-52
2022/09/15 01:25:49;;;;;;;9.37;7.60;;;15.00;99.90;;;;;;4959443;28;20211;-53
2022/09/15 01:28:39;;;;;;;11.73;7.93;;;15.00;99.90;;;;;;5020246;28;20197;-52
2022/09/15 01:31:14;;;;;;;11.90;7.90;;;15.00;99.90;;;;;;5027765;28;20297;-52
2022/09/15 01:33:59;;;;;;;10.63;7.67;;;15.10;99.90;;;;;;5026994;28;20268;-52
2022/09/15 01:36:55;;;;;;;13.57;8.23;;;15.10;99.90;;;;;;5024204;28;20207;-53
2022/09/15 01:39:31;;;;;;;11.37;8.20;;;15.10;99.90;;;;;;5028717;28;20199;-52
2022/09/15 01:42:01;;;;;;;11.83;7.90;;;15.10;99.90;;;;;;5029882;28;20714;-52
2022/09/15 01:44:33;;;;;;;11.30;7.93;;;15.10;99.90;;;;;;5030227;28;20203;-52
2022/09/15 01:47:08;;;;;;;9.07;7.47;;;15.00;99.90;;;;;;5027310;28;20672;-52
2022/09/15 01:49:59;;;;;;;14.50;8.60;;;15.00;99.90;;;;;;5025259;28;20201;-52
2022/09/15 01:52:28;;;;;;;17.00;8.27;;;15.10;99.90;;;;;;5025806;28;20205;-52
2022/09/15 01:54:58;;;;;;;11.87;7.60;;;15.00;99.90;;;;;;5028857;28;20312;-53
2022/09/15 01:57:26;;;;;;;13.00;8.17;;;15.10;99.90;;;;;;5028518;28;20275;-52
2022/09/15 01:59:54;;;;;;;14.30;7.97;;;15.10;99.90;;;;;;5026728;28;20207;-52
2022/09/15 02:02:27;;;;;;;11.13;7.43;;;15.00;99.90;;;;;;5043951;28;20232;-52
2022/09/15 02:05:15;;;;;;;12.03;7.57;;;15.00;99.90;;;;;;5027988;28;20328;-52
2022/09/15 02:08:08;;;;;;;10.67;7.47;;;15.00;99.90;;;;;;5028221;28;20543;-52
2022/09/15 02:10:50;;;;;;;9.47;7.00;;;15.10;99.90;;;;;;5029610;28;20809;-51
2022/09/15 02:13:29;;;;;;;9.20;7.20;;;15.00;99.90;;;;;;5027621;28;20220;-52
2022/09/15 02:15:58;;;;;;;10.27;7.87;;;15.00;99.90;;;;;;5025991;28;20296;-52
2022/09/15 02:18:36;;;;;;;10.47;6.73;;;15.00;99.90;;;;;;5024655;28;20198;-52
2022/09/15 02:21:09;;;;;;;11.83;7.83;;;15.10;99.90;;;;;;5027144;28;20534;-53
2022/09/15 02:23:43;;;;;;;11.20;7.43;;;15.00;99.90;;;;;;5022858;28;20263;-53
2022/09/15 02:26:18;;;;;;;11.37;7.97;;;14.90;99.90;;;;;;5028734;28;20577;-53
2022/09/15 02:28:47;;;;;;;11.40;7.20;;;14.80;99.90;;;;;;5027998;28;20208;-53
2022/09/15 02:31:17;;;;;;;10.20;7.43;;;14.80;99.90;;;;;;5027454;28;20282;-52
2022/09/15 02:33:58;;;;;;;11.53;7.67;;;14.80;99.90;;;;;;5028728;28;20215;-52
2022/09/15 02:36:27;;;;;;;18.13;7.50;;;14.70;99.90;;;;;;5027734;28;20692;-53
2022/09/15 02:39:00;;;;;;;11.73;7.50;;;14.70;99.90;;;;;;5030696;28;20238;-52
2022/09/15 02:41:27;;;;;;;10.63;7.90;;;14.70;99.90;;;;;;5029090;28;20284;-52
2022/09/15 02:43:54;;;;;;;11.70;7.90;;;14.70;99.90;;;;;;5028348;28;20198;-52
2022/09/15 02:46:21;;;;;;;12.30;7.50;;;14.70;99.90;;;;;;5028197;28;20286;-53
2022/09/15 02:48:49;;;;;;;11.90;7.37;;;14.70;99.90;;;;;;5026734;28;20240;-52
2022/09/15 02:51:17;;;;;;;14.23;7.87;;;14.60;99.90;;;;;;5024512;28;20310;-52
2022/09/15 02:53:45;;;;;;;11.57;8.00;;;14.70;99.90;;;;;;5026137;28;20569;-53
2022/09/15 02:56:12;;;;;;;13.37;8.00;;;14.70;99.90;;;;;;5026897;28;20247;-52
2022/09/15 02:58:39;;;;;;;11.57;7.80;;;14.80;99.90;;;;;;5025557;28;20198;-53
2022/09/15 03:01:07;;;;;;;12.60;7.70;;;14.90;99.90;;;;;;5023777;28;20238;-52
2022/09/15 03:03:34;;;;;;;11.93;7.53;;;14.90;99.90;;;;;;5025227;28;20200;-52
2022/09/15 03:06:19;;;;;;;8.67;7.53;;;14.80;99.90;;;;;;5020841;28;20251;-52
2022/09/15 03:08:54;;;;;;;9.00;6.70;;;14.90;99.90;;;;;;5025365;28;20239;-53
2022/09/15 03:11:23;;;;;;;11.37;7.67;;;15.00;99.90;;;;;;5024761;28;20206;-53
2022/09/15 03:13:58;;;;;;;10.00;7.43;;;15.00;99.90;;;;;;5025614;28;20318;-52
2022/09/15 03:16:26;;;;;;;9.70;7.27;;;15.00;99.90;;;;;;5026682;28;20289;-53
2022/09/15 03:18:54;;;;;;;8.83;7.50;;;15.10;99.90;;;;;;5025814;28;20204;-52
2022/09/15 03:21:22;;;;;;;9.03;7.43;;;15.10;99.90;;;;;;5025235;28;20189;-52
2022/09/15 03:23:48;;;;;;;12.20;7.57;;;15.20;99.90;;;;;;5024828;28;20257;-51
2022/09/15 03:26:15;;;;;;;11.17;6.73;;;15.30;99.90;;;;;;5027155;28;20203;-52
2022/09/15 03:28:42;;;;;;;9.37;7.50;;;15.20;99.90;;;;;;5028063;28;20208;-52
2022/09/15 03:31:09;;;;;;;10.87;7.73;;;15.30;99.90;;;;;;5032108;28;20289;-53
2022/09/15 03:33:37;;;;;;;10.80;7.73;;;15.20;99.90;;;;;;5030120;28;20219;-53
2022/09/15 03:36:04;;;;;;;13.20;8.30;;;15.20;99.90;;;;;;5026604;28;20195;-52
2022/09/15 03:38:31;;;;;;;14.07;7.83;;;15.20;99.90;;;;;;5028289;28;20189;-53
2022/09/15 03:41:06;;;;;;;13.13;7.70;;;15.20;99.90;;;;;;5030350;28;20202;-52
2022/09/15 03:43:34;;;;;;;12.20;8.03;;;15.20;99.90;;;;;;5029462;28;20202;-52
2022/09/15 03:46:03;;;;;;;9.63;7.73;;;15.10;99.90;;;;;;5029585;28;20200;-53
2022/09/15 03:48:33;;;;;;;12.13;7.90;;;15.10;99.90;;;;;;5027649;28;20198;-52
2022/09/15 03:51:01;;;;;;;10.67;7.93;;;15.10;99.90;;;;;;5027307;28;20668;-51
2022/09/15 03:53:31;;;;;;;9.53;7.27;;;14.70;99.90;;;;;;5029257;28;20229;-52
2022/09/15 03:56:21;;;;;;;11.70;7.87;;;14.50;99.90;;;;;;5029560;28;20646;-52
2022/09/15 03:58:47;;;;;;;11.93;7.50;;;14.40;99.90;;;;;;5029522;28;20194;-53
2022/09/15 04:01:14;;;;;;;12.93;7.77;;;14.30;99.90;;;;;;5027279;28;20611;-53
2022/09/15 04:03:41;;;;;;;16.53;7.43;;;14.30;99.90;;;;;;5026728;28;20688;-53
2022/09/15 04:06:16;;;;;;;12.40;8.57;;;14.30;99.90;;;;;;5026661;28;20660;-52
2022/09/15 04:08:43;;;;;;;9.67;7.53;;;14.40;99.90;;;;;;5028297;28;20208;-52
2022/09/15 04:11:11;;;;;;;12.57;7.80;;;14.40;99.90;;;;;;5026792;28;20794;-52
2022/09/15 04:13:40;;;;;;;11.93;7.90;;;14.50;99.90;;;;;;5030466;28;20213;-53
2022/09/15 04:16:13;;;;;;;9.20;7.93;;;14.70;99.90;;;;;;5028980;28;20203;-53
2022/09/15 04:18:40;;;;;;;13.77;8.17;;;14.70;99.90;;;;;;5028508;28;20212;-52
2022/09/15 04:21:12;;;;;;;10.57;7.63;;;14.70;99.90;;;;;;5026251;28;20202;-52
2022/09/15 04:23:40;;;;;;;10.80;7.27;;;14.60;99.90;;;;;;5026519;28;20209;-52
2022/09/15 04:26:15;;;;;;;15.10;7.93;;;14.60;99.90;;;;;;5025463;28;20201;-53
2022/09/15 04:28:42;;;;;;;10.23;8.43;;;14.50;99.90;;;;;;5030272;28;20662;-53
2022/09/15 04:31:11;;;;;;;15.03;8.30;;;14.40;99.90;;;;;;5029289;28;20198;-52
2022/09/15 04:33:40;;;;;;;11.60;8.20;;;14.50;99.90;;;;;;5027843;28;20309;-53
2022/09/15 04:36:11;;;;;;;12.50;8.00;;;14.50;99.90;;;;;;5028228;28;20419;-52
2022/09/15 04:38:38;;;;;;;8.87;7.37;;;14.50;99.90;;;;;;5032619;28;20281;-53
2022/09/15 04:41:05;;;;;;;14.03;8.10;;;14.50;99.90;;;;;;5030104;28;20201;-52
2022/09/15 04:43:32;;;;;;;10.33;8.33;;;14.60;99.90;;;;;;5029042;28;20604;-52
2022/09/15 04:45:59;;;;;;;10.27;7.60;;;14.50;99.90;;;;;;5027980;28;20276;-52
2022/09/15 04:48:26;;;;;;;10.37;7.13;;;14.60;99.90;;;;;;5026806;28;20208;-51
2022/09/15 04:50:53;;;;;;;11.87;7.43;;;14.60;99.90;;;;;;5023759;28;20735;-52
2022/09/15 04:53:20;;;;;;;10.90;7.47;;;14.70;99.90;;;;;;5028512;28;22189;-52
2022/09/15 04:55:47;;;;;;;9.87;8.10;;;14.80;99.90;;;;;;5028209;28;20218;-53
2022/09/15 04:58:14;;;;;;;11.10;7.43;;;14.80;99.90;;;;;;5026571;28;20287;-53
2022/09/15 05:00:42;;;;;;;13.13;7.83;;;14.90;99.90;;;;;;5028235;28;20197;-53
2022/09/15 05:03:10;;;;;;;14.90;8.20;;;14.80;99.90;;;;;;5029371;28;20199;-53
2022/09/15 05:05:37;;;;;;;10.60;7.90;;;14.90;99.90;;;;;;5027986;28;20276;-52
2022/09/15 05:08:04;;;;;;;13.40;7.67;;;15.00;99.90;;;;;;5028964;28;20720;-53
2022/09/15 05:10:32;;;;;;;11.07;7.67;;;15.00;99.90;;;;;;5025545;28;20208;-51
2022/09/15 05:12:59;;;;;;;9.40;7.57;;;15.00;99.90;;;;;;5026342;28;20206;-52
2022/09/15 05:15:26;;;;;;;11.83;7.67;;;14.90;99.90;;;;;;5030189;28;20237;-53
2022/09/15 05:17:52;;;;;;;10.43;7.37;;;15.00;99.90;;;;;;5029147;28;20196;-53
2022/09/15 05:20:19;;;;;;;8.63;7.40;;;14.90;99.90;;;;;;5027642;28;20208;-52
2022/09/15 05:22:46;;;;;;;11.40;7.23;;;14.80;99.90;;;;;;5028772;28;20212;-53
2022/09/15 05:25:13;;;;;;;10.83;7.30;;;14.80;99.90;;;;;;5028096;28;20295;-53
2022/09/15 05:27:40;;;;;;;13.47;8.33;;;14.80;99.90;;;;;;5024455;28;20580;-53
2022/09/15 05:30:07;;;;;;;14.03;8.63;;;14.80;99.90;;;;;;5026743;28;20206;-53
2022/09/15 05:32:55;;;;;;;10.73;8.17;;;14.90;99.90;;;;;;5026528;28;20203;-54
2022/09/15 05:35:22;;;;;;;12.93;7.73;;;14.80;99.90;;;;;;5026074;28;20214;-53
2022/09/15 05:37:49;;;;;;;11.77;7.87;;;14.90;99.90;;;;;;5028722;28;20205;-53
2022/09/15 05:40:16;;;;;;;10.80;7.43;;;14.90;99.90;;;;;;5028560;28;20286;-53
2022/09/15 05:42:43;;;;;;;12.00;7.80;;;14.80;99.90;;;;;;5026808;28;20575;-52
2022/09/15 05:45:10;;;;;;;14.20;8.50;;;14.70;99.90;;;;;;5024870;28;20290;-53
2022/09/15 05:47:36;;;;;;;14.77;7.57;;;14.80;99.90;;;;;;5026463;28;20609;-53
2022/09/15 05:50:04;;;;;;;13.23;8.37;;;14.80;99.90;;;;;;5028247;28;20258;-53
2022/09/15 05:52:31;;;;;;;14.53;8.17;;;14.70;99.90;;;;;;5023684;28;20205;-52
2022/09/15 05:54:57;;;;;;;10.80;8.40;;;14.50;99.90;;;;;;5026385;28;20215;-52
2022/09/15 05:57:25;;;;;;;12.37;9.10;;;14.50;99.90;;;;;;4663944;28;10000398;-51
2022/09/15 05:59:52;;;;;;;18.13;9.23;;;14.50;99.90;;;;;;5019254;28;20248;-53
2022/09/15 06:02:19;;;;;;;13.40;8.00;;;14.50;99.90;;;;;;5017938;28;20569;-53
2022/09/15 06:04:46;;;;;;;12.47;8.13;;;14.40;99.90;;;;;;5021076;28;20332;-52
2022/09/15 06:07:15;;;;;;;15.13;8.67;;;14.40;99.90;;;;;;5021627;28;20437;-53
2022/09/15 06:09:41;;;;;;;14.23;9.10;;;14.40;99.90;;;;;;5023121;28;21315;-53
2022/09/15 06:12:08;;;;;;;15.93;9.13;;;14.50;99.90;;;;;;5017686;28;20208;-52
2022/09/15 06:14:35;;;;;;;13.00;8.07;;;14.50;99.90;;;;;;5022062;28;20249;-53
2022/09/15 06:17:02;;;;;;;12.97;8.33;;;14.50;99.90;;;;;;5026214;28;20295;-52
2022/09/15 06:19:28;;;;;;;12.90;9.27;;;14.60;99.90;;;;;;5026507;28;20643;-53
2022/09/15 06:21:55;;;;;;;12.07;8.27;;;14.60;99.90;;;;;;5020219;28;20200;-54
2022/09/15 06:24:23;;;;;;;12.13;8.07;;;14.60;99.90;;;;;;5016748;28;20557;-52
2022/09/15 06:26:50;;;;;;;11.80;8.80;;;14.60;99.90;;;;;;5020248;28;20201;-52
2022/09/15 06:29:17;;;;;;;16.83;9.30;;;14.60;99.90;;;;;;5016195;28;20207;-52
2022/09/15 06:31:43;;;;;;;17.17;9.50;;;14.80;99.90;;;;;;5022329;28;20650;-53
2022/09/15 06:34:10;;;;;;;12.83;8.73;;;15.00;99.90;;;;;;5020760;28;20297;-52
2022/09/15 06:36:37;;;;;;;15.57;8.90;;;15.00;99.90;;;;;;5022263;28;20202;-53
2022/09/15 06:39:04;;;;;;;14.63;8.87;;;15.20;99.90;;;;;;5021899;28;20650;-53
2022/09/15 06:41:31;;;;;;;14.50;8.20;;;15.20;99.90;;;;;;5023559;28;20202;-53
2022/09/15 06:44:19;;;;;;;16.73;9.87;;;15.30;99.90;;;;;;5029257;28;20202;-52
2022/09/15 06:46:46;;;;;;;10.70;7.80;;;15.40;99.90;;;;;;5026979;28;20574;-53
2022/09/15 06:49:13;;;;;;;8.77;7.67;;;15.30;99.90;;;;;;5025540;28;20272;-55
2022/09/15 06:51:40;;;;;;;11.43;7.70;;;15.30;99.90;;;;;;5024129;28;20194;-53
2022/09/15 06:54:07;;;;;;;11.17;7.43;;;15.30;99.90;;;;;;5024710;28;20202;-53
2022/09/15 06:56:34;;;;;;;16.40;8.00;;;15.30;99.90;;;;;;5025582;28;20195;-53
2022/09/15 06:59:04;;;;;;;10.70;7.70;;;15.20;99.90;;;;;;5023154;28;20198;-53
2022/09/15 07:01:31;;;;;;;9.40;7.07;;;15.20;99.90;;;;;;5022957;28;20227;-54
2022/09/15 07:04:00;;;;;;;13.93;7.73;;;15.10;99.90;;;;;;5019153;28;20237;-53
2022/09/15 07:06:29;;;;;;;11.07;7.20;;;15.20;99.90;;;;;;5026766;28;20219;-53
2022/09/15 07:08:57;;;;;;;12.00;7.20;;;15.30;99.90;;;;;;5020865;28;20210;-52
2022/09/15 07:11:25;;;;;;;10.73;7.23;;;15.50;99.90;;;;;;5019747;28;20641;-55
2022/09/15 07:13:52;;;;;;;12.27;7.63;;;15.60;99.90;;;;;;5024293;28;20208;-53
2022/09/15 07:16:20;;;;;;;8.30;6.63;;;15.60;99.90;;;;;;5022419;28;20231;-53
2022/09/15 07:18:47;;;;;;;10.93;7.53;;;15.60;99.90;;;;;;5018429;28;20339;-53
2022/09/15 07:21:18;;;;;;;9.30;6.63;;;15.50;99.90;;;;;;5017182;28;20207;-54
2022/09/15 07:23:46;;;;;;;12.17;7.30;;;15.50;99.90;;;;;;5022847;28;20202;-53
2022/09/15 07:26:18;;;;;;;10.03;6.60;;;15.40;99.90;;;;;;5035180;28;20198;-53
2022/09/15 07:28:51;;;;;;;10.33;7.03;;;15.60;99.90;;;;;;5018479;28;20558;-52
2022/09/15 07:31:20;;;;;;;9.37;6.83;;;15.70;99.90;;;;;;5020856;28;20253;-53
2022/09/15 07:33:47;;;;;;;9.77;6.67;;;15.70;99.90;;;;;;5018653;28;20248;-52
2022/09/15 07:36:15;;;;;;;8.27;7.03;;;15.70;99.90;;;;;;5021814;28;20310;-53
2022/09/15 07:38:44;;;;;;;12.03;6.70;;;15.70;99.90;;;;;;5023474;28;20229;-53
2022/09/15 07:41:14;;;;;;;11.60;6.97;;;15.60;99.90;;;;;;5023508;28;20248;-53
2022/09/15 07:43:45;;;;;;;11.17;7.00;;;15.60;99.90;;;;;;5021496;28;20224;-53
2022/09/15 07:46:12;;;;;;;10.50;6.93;;;15.70;99.90;;;;;;5022326;28;20203;-53
2022/09/15 07:48:39;;;;;;;12.27;6.87;;;15.70;99.90;;;;;;5018472;28;20203;-53
2022/09/15 07:51:05;;;;;;;16.57;7.07;;;15.80;99.90;;;;;;5024083;28;20225;-53
2022/09/15 07:53:33;;;;;;;15.80;7.33;;;15.80;99.90;;;;;;5023729;28;20218;-52
2022/09/15 07:56:00;;;;;;;12.20;6.67;;;16.00;99.90;;;;;;5017821;28;20268;-53
2022/09/15 07:58:26;;;;;;;11.90;7.30;;;16.00;99.90;;;;;;5018089;28;20217;-52
2022/09/15 08:00:53;;;;;;;10.30;6.60;;;15.90;99.90;;;;;;5022007;28;20246;-53
2022/09/15 08:03:20;;;;;;;19.33;7.47;;;16.00;99.90;;;;;;5018127;28;20268;-53
2022/09/15 08:05:47;;;;;;;10.17;6.37;;;16.00;99.90;;;;;;5024101;28;20551;-53
2022/09/15 08:08:14;;;;;;;7.63;5.90;;;16.00;99.90;;;;;;5021964;28;20291;-52
2022/09/15 08:10:41;;;;;;;10.67;6.13;;;16.00;99.90;;;;;;5020794;28;20223;-54
2022/09/15 08:13:08;;;;;;;8.63;5.93;;;16.00;99.90;;;;;;5024977;28;20661;-53
2022/09/15 08:15:36;;;;;;;14.83;5.60;;;16.10;99.90;;;;;;5028074;28;20218;-53
2022/09/15 08:18:04;;;;;;;6.57;5.27;;;16.10;99.90;;;;;;5024783;28;20195;-52
2022/09/15 08:20:31;;;;;;;9.80;5.20;;;16.10;99.90;;;;;;5025149;28;20221;-53
2022/09/15 08:22:58;;;;;;;8.63;5.13;;;16.10;99.90;;;;;;5023809;28;20216;-53
2022/09/15 08:25:25;;;;;;;5.93;5.00;;;16.20;99.90;;;;;;5030674;28;20235;-53
2022/09/15 08:27:53;;;;;;;8.00;4.53;;;16.20;99.90;;;;;;5028128;28;20231;-53
2022/09/15 08:30:21;;;;;;;6.30;4.27;;;16.20;99.90;;;;;;5023873;28;20203;-52
2022/09/15 08:32:49;;;;;;;7.50;5.10;;;16.20;99.90;;;;;;5025156;28;20203;-53
2022/09/15 08:35:16;;;;;;;8.10;3.73;;;16.40;99.90;;;;;;5026173;28;20226;-52
2022/09/15 08:37:43;;;;;;;7.77;3.50;;;16.50;99.90;;;;;;5025713;28;20209;-52
2022/09/15 08:40:25;;;;;;;6.27;4.00;;;16.60;99.90;;;;;;5027336;28;20201;-52
2022/09/15 08:42:56;;;;;;;5.87;3.43;;;16.70;99.90;;;;;;5027049;28;20246;-54
2022/09/15 08:45:31;;;;;;;5.23;2.73;;;16.60;99.90;;;;;;5025836;28;20215;-52
2022/09/15 08:48:02;;;;;;;10.77;3.80;;;16.50;99.90;;;;;;5026293;28;20564;-53
2022/09/15 08:50:38;;;;;;;15.50;4.00;;;16.40;99.90;;;;;;5027194;28;20834;-52
2022/09/15 08:53:23;;;;;;;6.80;3.20;;;16.40;99.90;;;;;;5026572;28;20217;-51
2022/09/15 08:55:55;;;;;;;5.47;2.73;;;16.60;99.90;;;;;;5022566;28;20573;-53
2022/09/15 08:58:28;;;;;;;5.03;2.40;;;16.50;99.90;;;;;;5017951;28;20606;-52
2022/09/15 09:01:24;;;;;;;9.57;2.83;;;16.60;99.90;;;;;;5023038;28;20220;-52
2022/09/15 09:04:03;;;;;;;3.63;2.47;;;16.70;99.90;;;;;;5015943;28;20225;-52
2022/09/15 09:06:51;;;;;;;7.23;2.50;;;16.70;99.90;;;;;;5017429;28;20564;-53
2022/09/15 09:09:36;;;;;;;5.93;2.10;;;16.80;99.90;;;;;;5019853;28;20254;-54
2022/09/15 09:12:40;;;;;;;6.00;1.60;;;16.90;99.90;;;;;;5021388;28;20326;-54
2022/09/15 09:15:37;;;;;;;5.53;1.80;;;16.80;99.90;;;;;;5021920;28;20220;-53
2022/09/15 09:18:10;;;;;;;3.53;1.90;;;16.60;99.90;;;;;;5024015;28;20200;-53
2022/09/15 09:20:56;;;;;;;7.53;1.97;;;16.70;99.90;;;;;;5023832;28;20298;-53
2022/09/15 09:23:27;;;;;;;6.00;1.70;;;16.80;99.90;;;;;;5015523;28;20323;-53
2022/09/15 09:25:55;;;;;;;4.73;1.60;;;16.70;99.90;;;;;;5024799;28;20200;-53
2022/09/15 09:28:32;;;;;;;5.60;1.80;;;16.60;99.90;;;;;;5019189;28;20204;-53
2022/09/15 09:31:10;;;;;;;3.00;1.43;;;16.60;99.90;;;;;;5024494;28;20254;-54
2022/09/15 09:33:42;;;;;;;2.53;1.67;;;16.60;99.90;;;;;;5025857;28;20203;-53
2022/09/15 09:36:13;;;;;;;3.23;1.73;;;16.40;99.90;;;;;;5028263;28;20213;-53
2022/09/15 09:38:44;;;;;;;6.40;2.07;;;16.50;99.90;;;;;;5027034;28;20204;-53
2022/09/15 09:41:18;;;;;;;5.50;1.60;;;16.50;99.90;;;;;;5007428;28;20212;-52
2022/09/15 09:43:47;;;;;;;4.40;1.73;;;16.50;99.90;;;;;;5020734;28;20732;-53
2022/09/15 09:46:16;;;;;;;5.43;2.00;;;16.60;99.90;;;;;;5024927;28;20222;-53
2022/09/15 09:48:53;;;;;;;4.73;1.70;;;16.60;99.90;;;;;;5023767;28;20226;-53
2022/09/15 09:51:36;;;;;;;10.03;2.00;;;16.70;99.90;;;;;;5025089;28;20194;-53
2022/09/15 09:54:15;;;;;;;6.03;1.97;;;16.80;99.90;;;;;;5025171;28;20200;-53
2022/09/15 09:56:43;;;;;;;9.60;2.10;;;16.90;99.90;;;;;;5028748;28;20214;-53
2022/09/15 09:59:32;;;;;;;4.93;1.43;;;16.90;99.90;;;;;;5026336;28;20689;-53
2022/09/15 10:02:20;;;;;;;7.17;1.63;;;16.90;29.20;;;;;;5027355;28;20229;-53
2022/09/15 10:04:56;;;;;;;8.53;1.83;;;17.10;99.90;;;;;;5027040;28;20576;-52
2022/09/15 10:07:26;;;;;;;2.13;1.43;;;17.20;1.00;;;;;;5022756;28;20203;-53
2022/09/15 10:09:58;;;;;;;5.03;1.70;;;17.00;1.00;;;;;;5026683;28;20202;-53
2022/09/15 10:12:39;;;;;;;8.10;2.03;;;17.00;99.90;;;;;;5029202;28;20722;-53
2022/09/15 10:15:19;;;;;;;4.93;1.47;;;16.90;1.00;;;;;;5027145;28;20218;-53
2022/09/15 10:17:48;;;;;;;3.10;0.70;;;16.90;99.90;;;;;;5026513;28;20201;-53
2022/09/15 10:20:34;;;;;;;2.57;0.60;;;16.50;99.90;;;;;;5026310;28;20265;-53
2022/09/15 10:23:17;;;;;;;1.90;0.43;;;16.40;99.90;;;;;;5027239;28;20206;-53
2022/09/15 10:25:44;;;;;;;2.80;0.70;;;16.20;1.00;;;;;;5026088;28;20200;-53
2022/09/15 10:28:27;;;;;;;1.00;0.50;;;16.20;1.00;;;;;;5016574;28;20219;-53
2022/09/15 10:31:09;;;;;;;2.40;0.70;;;16.10;1.00;;;;;;5025242;28;20239;-53
2022/09/15 10:33:44;;;;;;;1.90;0.67;;;16.10;1.00;;;;;;5029177;28;20202;-53
2022/09/15 10:36:17;;;;;;;4.83;1.07;;;16.20;1.00;;;;;;5025926;28;20282;-53
2022/09/15 10:38:47;;;;;;;1.87;0.67;;;16.20;48.70;;;;;;5028419;28;20240;-53
2022/09/15 10:41:20;;;;;;;4.00;0.83;;;16.30;99.90;;;;;;5028349;28;20650;-53
2022/09/15 10:44:25;;;;;;;4.17;1.20;;;16.20;99.90;;;;;;5024671;28;20201;-53
2022/09/15 10:47:43;;;;;;;2.97;0.70;;;16.20;1.00;;;;;;5026131;28;20246;-53
2022/09/15 10:50:32;;;;;;;2.97;0.63;;;16.30;1.00;;;;;;5009825;28;20299;-54
2022/09/15 10:53:17;;;;;;;4.10;1.47;;;16.20;1.00;;;;;;5022321;28;20210;-53
2022/09/15 10:56:24;;;;;;;4.03;0.90;;;16.50;1.00;;;;;;5028195;28;20233;-54
2022/09/15 10:59:25;;;;;;;4.20;1.10;;;16.60;1.00;;;;;;5023767;28;20638;-53
2022/09/15 11:02:10;;;;;;;3.23;0.70;;;16.80;44.10;;;;;;5010076;28;20219;-54
2022/09/15 11:04:52;;;;;;;1.97;0.80;;;16.70;1.00;;;;;;5026122;28;20232;-53
2022/09/15 11:07:49;;;;;;;3.23;1.13;;;16.80;1.00;;;;;;5023388;28;20232;-53
2022/09/15 11:10:34;;;;;;;3.80;0.97;;;16.70;44.30;;;;;;5025993;28;20584;-53
2022/09/15 11:13:29;;;;;;;2.70;0.80;;;17.00;99.90;;;;;;5024612;28;20663;-53
2022/09/15 11:16:45;;;;;;;3.87;0.67;;;17.30;1.00;;;;;;5023755;28;20208;-53
2022/09/15 11:19:33;;;;;;;2.30;0.60;;;17.30;1.00;;;;;;5024023;28;20202;-53
2022/09/15 11:22:10;;;;;;;2.93;0.90;;;17.50;1.00;;;;;;5018147;28;20204;-53
2022/09/15 11:24:40;;;;;;;5.47;0.83;;;17.90;1.00;;;;;;5023755;28;20200;-53
2022/09/15 11:27:24;;;;;;;3.13;0.60;;;18.00;48.80;;;;;;5021936;28;20207;-53
2022/09/15 11:30:06;;;;;;;2.33;0.80;;;18.00;1.00;;;;;;5024190;28;20203;-53
2022/09/15 11:32:50;;;;;;;3.13;0.80;;;18.20;99.90;;;;;;5022627;28;21927;-52
2022/09/15 11:35:45;;;;;;;2.73;0.60;;;18.20;1.00;;;;;;5023033;28;20219;-54
2022/09/15 11:38:30;;;;;;;3.00;0.90;;;18.10;99.90;;;;;;5022855;28;20207;-53
2022/09/15 11:41:14;;;;;;;2.17;0.50;;;18.10;79.60;;;;;;5038788;28;20595;-53
2022/09/15 11:44:02;;;;;;;3.57;0.80;;;18.10;62.50;;;;;;5026443;28;20195;-55
2022/09/15 11:47:21;;;;;;;2.87;0.73;;;18.00;1.00;;;;;;5028045;28;20246;-53
2022/09/15 11:50:11;;;;;;;5.50;0.80;;;18.30;94.90;;;;;;5027613;28;20657;-52
2022/09/15 11:52:45;;;;;;;2.90;0.70;;;18.20;1.00;;;;;;5023247;28;20285;-53
2022/09/15 11:55:36;;;;;;;1.40;0.80;;;18.60;99.90;;;;;;5033128;28;20208;-53
2022/09/15 11:58:28;;;;;;;2.20;0.70;;;19.10;99.90;;;;;;5030188;28;20205;-53
2022/09/15 12:01:11;;;;;;;3.77;0.90;;;19.10;1.00;;;;;;5027688;28;20248;-53
2022/09/15 12:03:47;;;;;;;2.47;0.90;;;19.20;58.00;;;;;;5027195;28;20234;-53
2022/09/15 12:06:40;;;;;;;1.13;0.60;;;19.30;99.90;;;;;;5030279;28;20670;-54
2022/09/15 12:09:17;;;;;;;2.63;0.70;;;19.50;99.90;;;;;;5030026;28;20219;-54
2022/09/15 12:12:00;;;;;;;3.33;1.00;;;19.60;1.00;;;;;;5028772;28;20241;-54
2022/09/15 12:14:37;;;;;;;5.90;1.00;;;19.90;1.00;;;;;;5031464;28;20196;-53
2022/09/15 12:17:15;;;;;;;2.93;0.90;;;19.90;1.00;;;;;;5027532;28;20222;-52
2022/09/15 12:20:04;;;;;;;5.73;0.90;;;19.50;1.00;;;;;;5028848;28;20204;-52
2022/09/15 12:22:45;;;;;;;3.17;1.27;;;19.50;1.00;;;;;;5033457;28;20577;-53
2022/09/15 12:25:43;;;;;;;2.00;0.70;;;19.90;99.90;;;;;;5021384;28;20204;-53
2022/09/15 12:28:49;;;;;;;1.60;0.83;;;20.20;99.90;;;;;;5032253;28;20298;-53
2022/09/15 12:31:25;;;;;;;3.03;1.23;;;21.00;99.90;;;;;;5031818;28;20301;-54
2022/09/15 12:33:53;;;;;;;4.50;0.90;;;21.00;99.90;;;;;;5033499;28;20205;-54
2022/09/15 12:36:44;;;;;;;2.43;0.70;;;20.70;99.90;;;;;;5032213;28;20247;-54
2022/09/15 12:39:25;;;;;;;4.67;0.90;;;20.90;99.90;;;;;;5031798;28;20208;-54
2022/09/15 12:41:59;;;;;;;3.33;0.60;;;20.80;9.00;;;;;;5028916;28;20231;-54
2022/09/15 12:44:34;;;;;;;4.30;0.70;;;20.40;17.90;;;;;;5029201;28;20290;-55
2022/09/15 12:47:06;;;;;;;1.93;0.50;;;20.40;52.60;;;;;;5025026;28;20294;-54
2022/09/15 12:49:42;;;;;;;1.50;0.53;;;20.50;99.90;;;;;;5032166;28;20202;-59
2022/09/15 12:52:10;;;;;;;3.10;0.63;;;20.60;99.90;;;;;;5026134;28;20329;-53
2022/09/15 12:54:41;;;;;;;1.70;0.77;;;20.90;94.10;;;;;;5020573;28;20298;-54
2022/09/15 12:57:27;;;;;;;2.03;0.90;;;20.80;99.90;;;;;;5022439;28;20215;-54
2022/09/15 13:00:35;;;;;;;1.90;0.80;;;20.30;99.90;;;;;;5029227;28;20208;-53
2022/09/15 13:03:27;;;;;;;1.47;0.40;;;20.20;99.90;;;;;;5026733;28;20224;-53
2022/09/15 13:06:15;;;;;;;3.20;0.93;;;20.40;99.90;;;;;;5020878;28;20203;-53
2022/09/15 13:08:50;;;;;;;3.20;0.80;;;20.50;99.90;;;;;;5025666;28;20656;-53
2022/09/15 13:11:43;;;;;;;2.07;0.70;;;20.30;84.70;;;;;;5025553;28;20219;-53
2022/09/15 13:14:25;;;;;;;4.30;0.77;;;20.30;57.80;;;;;;5022538;28;20334;-53
2022/09/15 13:17:12;;;;;;;1.37;0.67;;;20.10;99.90;;;;;;5021663;28;20238;-53
2022/09/15 13:19:45;;;;;;;1.40;0.70;;;19.80;99.90;;;;;;5027242;28;20219;-52